sensor_id;sensor_type;location;lat;lon;timestamp;temperature;humidity
59505;DHT22;45321;53.200;5.814;2022-12-05T00:03:51;6.20;85.00
59505;DHT22;45321;53.200;5.814;2022-12-05T00:06:18;6.20;85.00
59505;DHT22;45321;53.200;5.814;2022-12-05T00:08:45;6.20;85.10
59505;DHT22;45321;53.200;5.814;2022-12-05T00:11:20;6.20;85.10
59505;DHT22;45321;53.200;5.814;2022-12-05T00:13:47;6.20;85.20
59505;DHT22;45321;53.200;5.814;2022-12-05T00:16:16;6.20;85.20
59505;DHT22;45321;53.200;5.814;2022-12-05T00:18:42;6.20;85.30
59505;DHT22;45321;53.200;5.814;2022-12-05T00:21:14;6.20;85.20
59505;DHT22;45321;53.200;5.814;2022-12-05T00:23:41;6.20;85.20
59505;DHT22;45321;53.200;5.814;2022-12-05T00:26:07;6.20;85.20
59505;DHT22;45321;53.200;5.814;2022-12-05T00:28:33;6.20;85.10
59505;DHT22;45321;53.200;5.814;2022-12-05T00:31:11;6.20;85.00
59505;DHT22;45321;53.200;5.814;2022-12-05T00:33:40;6.30;85.00
59505;DHT22;45321;53.200;5.814;2022-12-05T00:36:11;6.30;84.80
59505;DHT22;45321;53.200;5.814;2022-12-05T00:38:38;6.20;84.80
59505;DHT22;45321;53.200;5.814;2022-12-05T00:41:11;6.20;84.70
59505;DHT22;45321;53.200;5.814;2022-12-05T00:43:37;6.20;84.70
59505;DHT22;45321;53.200;5.814;2022-12-05T00:46:05;6.30;84.60
59505;DHT22;45321;53.200;5.814;2022-12-05T00:48:32;6.20;84.70
59505;DHT22;45321;53.200;5.814;2022-12-05T00:53:34;6.20;84.70
59505;DHT22;45321;53.200;5.814;2022-12-05T00:56:08;6.30;84.70
59505;DHT22;45321;53.200;5.814;2022-12-05T00:58:35;6.20;84.60
59505;DHT22;45321;53.200;5.814;2022-12-05T01:01:16;6.30;84.70
59505;DHT22;45321;53.200;5.814;2022-12-05T01:03:43;6.30;84.50
59505;DHT22;45321;53.200;5.814;2022-12-05T01:06:09;6.40;84.60
59505;DHT22;45321;53.200;5.814;2022-12-05T01:08:36;6.40;84.50
59505;DHT22;45321;53.200;5.814;2022-12-05T01:11:02;6.40;84.40
59505;DHT22;45321;53.200;5.814;2022-12-05T01:13:29;6.40;84.40
59505;DHT22;45321;53.200;5.814;2022-12-05T01:15:55;6.40;84.20
59505;DHT22;45321;53.200;5.814;2022-12-05T01:18:21;6.40;84.20
59505;DHT22;45321;53.200;5.814;2022-12-05T01:20:47;6.40;84.20
59505;DHT22;45321;53.200;5.814;2022-12-05T01:23:14;6.40;84.20
59505;DHT22;45321;53.200;5.814;2022-12-05T01:25:41;6.40;84.30
59505;DHT22;45321;53.200;5.814;2022-12-05T01:28:07;6.40;84.30
59505;DHT22;45321;53.200;5.814;2022-12-05T01:30:40;6.40;84.40
59505;DHT22;45321;53.200;5.814;2022-12-05T01:33:06;6.40;84.50
59505;DHT22;45321;53.200;5.814;2022-12-05T01:35:34;6.40;84.60
59505;DHT22;45321;53.200;5.814;2022-12-05T01:38:03;6.50;84.70
59505;DHT22;45321;53.200;5.814;2022-12-05T01:40:30;6.50;84.80
59505;DHT22;45321;53.200;5.814;2022-12-05T01:42:56;6.50;84.80
59505;DHT22;45321;53.200;5.814;2022-12-05T01:45:33;6.50;84.90
59505;DHT22;45321;53.200;5.814;2022-12-05T01:48:04;6.50;85.10
59505;DHT22;45321;53.200;5.814;2022-12-05T01:50:32;6.50;85.10
59505;DHT22;45321;53.200;5.814;2022-12-05T01:52:58;6.50;85.10
59505;DHT22;45321;53.200;5.814;2022-12-05T01:55:23;6.60;85.40
59505;DHT22;45321;53.200;5.814;2022-12-05T01:57:49;6.50;85.50
59505;DHT22;45321;53.200;5.814;2022-12-05T02:00:17;6.50;85.90
59505;DHT22;45321;53.200;5.814;2022-12-05T02:02:50;6.50;85.90
59505;DHT22;45321;53.200;5.814;2022-12-05T02:05:21;6.50;86.10
59505;DHT22;45321;53.200;5.814;2022-12-05T02:07:47;6.50;86.20
59505;DHT22;45321;53.200;5.814;2022-12-05T02:10:14;6.50;86.20
59505;DHT22;45321;53.200;5.814;2022-12-05T02:12:40;6.60;86.30
59505;DHT22;45321;53.200;5.814;2022-12-05T02:15:30;6.60;86.20
59505;DHT22;45321;53.200;5.814;2022-12-05T02:18:17;6.60;86.40
59505;DHT22;45321;53.200;5.814;2022-12-05T02:32:51;6.60;86.40
59505;DHT22;45321;53.200;5.814;2022-12-05T02:38:27;6.60;86.20
59505;DHT22;45321;53.200;5.814;2022-12-05T02:41:20;6.60;86.30
59505;DHT22;45321;53.200;5.814;2022-12-05T02:43:43;6.70;86.30
59505;DHT22;45321;53.200;5.814;2022-12-05T02:46:20;6.70;86.20
59505;DHT22;45321;53.200;5.814;2022-12-05T02:48:47;6.60;86.20
59505;DHT22;45321;53.200;5.814;2022-12-05T02:51:18;6.60;86.10
59505;DHT22;45321;53.200;5.814;2022-12-05T02:53:47;6.60;86.00
59505;DHT22;45321;53.200;5.814;2022-12-05T02:56:13;6.60;86.00
59505;DHT22;45321;53.200;5.814;2022-12-05T02:58:53;6.60;86.00
59505;DHT22;45321;53.200;5.814;2022-12-05T03:01:23;6.60;85.90
59505;DHT22;45321;53.200;5.814;2022-12-05T03:03:50;6.70;85.80
59505;DHT22;45321;53.200;5.814;2022-12-05T03:06:28;6.70;85.80
59505;DHT22;45321;53.200;5.814;2022-12-05T03:09:02;6.70;85.80
59505;DHT22;45321;53.200;5.814;2022-12-05T03:11:33;6.70;85.80
59505;DHT22;45321;53.200;5.814;2022-12-05T03:14:04;6.80;85.80
59505;DHT22;45321;53.200;5.814;2022-12-05T03:16:45;6.70;85.80
59505;DHT22;45321;53.200;5.814;2022-12-05T03:19:33;6.70;85.80
59505;DHT22;45321;53.200;5.814;2022-12-05T03:22:52;6.70;85.80
59505;DHT22;45321;53.200;5.814;2022-12-05T03:25:15;6.70;85.90
59505;DHT22;45321;53.200;5.814;2022-12-05T03:27:52;6.70;86.00
59505;DHT22;45321;53.200;5.814;2022-12-05T03:30:22;6.70;86.00
59505;DHT22;45321;53.200;5.814;2022-12-05T03:38:15;6.80;86.20
59505;DHT22;45321;53.200;5.814;2022-12-05T03:40:48;6.80;86.30
59505;DHT22;45321;53.200;5.814;2022-12-05T03:43:19;6.80;86.30
59505;DHT22;45321;53.200;5.814;2022-12-05T03:46:08;6.80;86.30
59505;DHT22;45321;53.200;5.814;2022-12-05T03:54:26;6.80;86.30
59505;DHT22;45321;53.200;5.814;2022-12-05T03:56:58;6.80;86.30
59505;DHT22;45321;53.200;5.814;2022-12-05T03:59:39;6.80;86.40
59505;DHT22;45321;53.200;5.814;2022-12-05T04:02:11;6.80;86.50
59505;DHT22;45321;53.200;5.814;2022-12-05T04:05:06;6.80;86.60
59505;DHT22;45321;53.200;5.814;2022-12-05T04:07:35;6.80;86.60
59505;DHT22;45321;53.200;5.814;2022-12-05T04:10:15;6.80;86.70
59505;DHT22;45321;53.200;5.814;2022-12-05T04:12:43;6.80;86.80
59505;DHT22;45321;53.200;5.814;2022-12-05T04:15:16;6.80;86.70
59505;DHT22;45321;53.200;5.814;2022-12-05T04:17:51;6.80;86.70
59505;DHT22;45321;53.200;5.814;2022-12-05T04:20:28;6.80;86.80
59505;DHT22;45321;53.200;5.814;2022-12-05T04:23:14;6.80;86.90
59505;DHT22;45321;53.200;5.814;2022-12-05T04:26:08;6.80;86.90
59505;DHT22;45321;53.200;5.814;2022-12-05T04:31:45;6.80;86.90
59505;DHT22;45321;53.200;5.814;2022-12-05T04:34:14;6.80;87.00
59505;DHT22;45321;53.200;5.814;2022-12-05T04:36:49;6.80;87.00
59505;DHT22;45321;53.200;5.814;2022-12-05T04:39:24;6.80;87.00
59505;DHT22;45321;53.200;5.814;2022-12-05T04:44:28;6.80;87.00
59505;DHT22;45321;53.200;5.814;2022-12-05T04:46:57;6.80;87.00
59505;DHT22;45321;53.200;5.814;2022-12-05T04:49:26;6.80;87.00
59505;DHT22;45321;53.200;5.814;2022-12-05T04:51:56;6.80;87.20
59505;DHT22;45321;53.200;5.814;2022-12-05T04:54:35;6.80;87.20
59505;DHT22;45321;53.200;5.814;2022-12-05T04:57:14;6.80;87.30
59505;DHT22;45321;53.200;5.814;2022-12-05T04:59:40;6.80;87.40
59505;DHT22;45321;53.200;5.814;2022-12-05T05:02:08;6.80;87.50
59505;DHT22;45321;53.200;5.814;2022-12-05T05:04:47;6.80;87.40
59505;DHT22;45321;53.200;5.814;2022-12-05T05:07:16;6.80;87.50
59505;DHT22;45321;53.200;5.814;2022-12-05T05:09:42;6.80;87.50
59505;DHT22;45321;53.200;5.814;2022-12-05T05:12:09;6.80;87.60
59505;DHT22;45321;53.200;5.814;2022-12-05T05:14:35;6.80;87.60
59505;DHT22;45321;53.200;5.814;2022-12-05T05:17:01;6.80;87.40
59505;DHT22;45321;53.200;5.814;2022-12-05T05:19:27;6.80;87.40
59505;DHT22;45321;53.200;5.814;2022-12-05T05:21:53;6.80;87.50
59505;DHT22;45321;53.200;5.814;2022-12-05T05:24:19;6.80;87.40
59505;DHT22;45321;53.200;5.814;2022-12-05T05:26:46;6.80;87.40
59505;DHT22;45321;53.200;5.814;2022-12-05T05:29:13;6.80;87.50
59505;DHT22;45321;53.200;5.814;2022-12-05T05:31:40;6.80;87.50
59505;DHT22;45321;53.200;5.814;2022-12-05T05:34:06;6.80;87.50
59505;DHT22;45321;53.200;5.814;2022-12-05T05:36:33;6.90;87.40
59505;DHT22;45321;53.200;5.814;2022-12-05T05:39:00;6.80;87.40
59505;DHT22;45321;53.200;5.814;2022-12-05T05:41:30;6.80;87.50
59505;DHT22;45321;53.200;5.814;2022-12-05T05:43:56;6.90;87.50
59505;DHT22;45321;53.200;5.814;2022-12-05T05:46:25;6.90;87.50
59505;DHT22;45321;53.200;5.814;2022-12-05T05:48:51;6.90;87.40
59505;DHT22;45321;53.200;5.814;2022-12-05T05:51:17;6.90;87.50
59505;DHT22;45321;53.200;5.814;2022-12-05T05:53:43;6.90;87.50
59505;DHT22;45321;53.200;5.814;2022-12-05T05:56:14;6.90;87.60
59505;DHT22;45321;53.200;5.814;2022-12-05T05:58:41;6.90;87.50
59505;DHT22;45321;53.200;5.814;2022-12-05T06:01:14;7.00;87.60
59505;DHT22;45321;53.200;5.814;2022-12-05T06:03:40;6.90;87.40
59505;DHT22;45321;53.200;5.814;2022-12-05T06:06:09;6.90;87.50
59505;DHT22;45321;53.200;5.814;2022-12-05T06:08:36;6.90;87.50
59505;DHT22;45321;53.200;5.814;2022-12-05T06:13:32;6.90;87.50
59505;DHT22;45321;53.200;5.814;2022-12-05T06:15:57;6.90;87.60
59505;DHT22;45321;53.200;5.814;2022-12-05T06:18:23;7.00;87.60
59505;DHT22;45321;53.200;5.814;2022-12-05T06:20:53;6.90;87.70
59505;DHT22;45321;53.200;5.814;2022-12-05T06:23:19;6.90;87.70
59505;DHT22;45321;53.200;5.814;2022-12-05T06:25:49;7.00;87.60
59505;DHT22;45321;53.200;5.814;2022-12-05T06:28:15;7.00;87.60
59505;DHT22;45321;53.200;5.814;2022-12-05T06:30:41;7.00;87.70
59505;DHT22;45321;53.200;5.814;2022-12-05T06:33:07;6.90;87.60
59505;DHT22;45321;53.200;5.814;2022-12-05T06:35:32;6.90;87.80
59505;DHT22;45321;53.200;5.814;2022-12-05T06:37:58;6.90;87.80
59505;DHT22;45321;53.200;5.814;2022-12-05T06:40:24;6.90;87.90
59505;DHT22;45321;53.200;5.814;2022-12-05T06:42:49;6.90;88.00
59505;DHT22;45321;53.200;5.814;2022-12-05T06:45:15;6.90;87.90
59505;DHT22;45321;53.200;5.814;2022-12-05T06:47:41;6.90;87.90
59505;DHT22;45321;53.200;5.814;2022-12-05T06:50:07;6.90;88.10
59505;DHT22;45321;53.200;5.814;2022-12-05T06:52:33;6.90;88.00
59505;DHT22;45321;53.200;5.814;2022-12-05T06:54:59;6.90;88.00
59505;DHT22;45321;53.200;5.814;2022-12-05T06:57:27;6.90;88.20
59505;DHT22;45321;53.200;5.814;2022-12-05T06:59:52;6.90;88.00
59505;DHT22;45321;53.200;5.814;2022-12-05T07:02:38;7.00;88.10
59505;DHT22;45321;53.200;5.814;2022-12-05T07:05:07;6.90;88.20
59505;DHT22;45321;53.200;5.814;2022-12-05T07:07:32;7.00;88.30
59505;DHT22;45321;53.200;5.814;2022-12-05T07:09:58;7.00;88.40
59505;DHT22;45321;53.200;5.814;2022-12-05T07:12:24;7.00;88.50
59505;DHT22;45321;53.200;5.814;2022-12-05T07:14:50;7.00;88.50
59505;DHT22;45321;53.200;5.814;2022-12-05T07:17:17;7.00;88.60
59505;DHT22;45321;53.200;5.814;2022-12-05T07:19:43;6.90;88.70
59505;DHT22;45321;53.200;5.814;2022-12-05T07:22:09;6.90;88.70
59505;DHT22;45321;53.200;5.814;2022-12-05T07:24:34;7.00;88.60
59505;DHT22;45321;53.200;5.814;2022-12-05T07:27:00;7.00;88.80
59505;DHT22;45321;53.200;5.814;2022-12-05T07:29:26;7.00;88.80
59505;DHT22;45321;53.200;5.814;2022-12-05T07:31:52;6.90;88.80
59505;DHT22;45321;53.200;5.814;2022-12-05T07:34:18;6.90;88.80
59505;DHT22;45321;53.200;5.814;2022-12-05T07:36:44;6.90;88.90
59505;DHT22;45321;53.200;5.814;2022-12-05T07:39:09;7.00;88.80
59505;DHT22;45321;53.200;5.814;2022-12-05T07:41:35;7.00;88.70
59505;DHT22;45321;53.200;5.814;2022-12-05T07:44:01;7.00;88.80
59505;DHT22;45321;53.200;5.814;2022-12-05T07:46:28;7.00;88.80
59505;DHT22;45321;53.200;5.814;2022-12-05T07:48:54;7.00;88.80
59505;DHT22;45321;53.200;5.814;2022-12-05T07:51:20;7.00;88.70
59505;DHT22;45321;53.200;5.814;2022-12-05T07:53:46;7.00;88.70
59505;DHT22;45321;53.200;5.814;2022-12-05T07:56:14;7.00;88.60
59505;DHT22;45321;53.200;5.814;2022-12-05T07:58:42;7.00;88.60
59505;DHT22;45321;53.200;5.814;2022-12-05T08:01:22;7.00;88.70
59505;DHT22;45321;53.200;5.814;2022-12-05T08:03:51;7.00;88.60
59505;DHT22;45321;53.200;5.814;2022-12-05T08:06:19;7.00;88.50
59505;DHT22;45321;53.200;5.814;2022-12-05T08:08:46;7.00;88.50
59505;DHT22;45321;53.200;5.814;2022-12-05T08:11:24;7.10;88.30
59505;DHT22;45321;53.200;5.814;2022-12-05T08:13:51;7.10;88.30
59505;DHT22;45321;53.200;5.814;2022-12-05T08:16:23;7.10;88.30
59505;DHT22;45321;53.200;5.814;2022-12-05T08:18:53;7.20;88.20
59505;DHT22;45321;53.200;5.814;2022-12-05T08:21:19;7.20;88.10
59505;DHT22;45321;53.200;5.814;2022-12-05T08:23:45;7.20;87.90
59505;DHT22;45321;53.200;5.814;2022-12-05T08:26:14;7.20;87.90
59505;DHT22;45321;53.200;5.814;2022-12-05T08:28:40;7.20;87.90
59505;DHT22;45321;53.200;5.814;2022-12-05T08:31:09;7.20;87.80
59505;DHT22;45321;53.200;5.814;2022-12-05T08:33:35;7.20;87.80
59505;DHT22;45321;53.200;5.814;2022-12-05T08:36:06;7.30;87.80
59505;DHT22;45321;53.200;5.814;2022-12-05T08:38:32;7.20;87.70
59505;DHT22;45321;53.200;5.814;2022-12-05T08:41:06;7.20;87.70
59505;DHT22;45321;53.200;5.814;2022-12-05T08:43:32;7.20;87.70
59505;DHT22;45321;53.200;5.814;2022-12-05T08:45:59;7.20;87.60
59505;DHT22;45321;53.200;5.814;2022-12-05T08:48:26;7.20;87.50
59505;DHT22;45321;53.200;5.814;2022-12-05T08:50:51;7.20;87.50
59505;DHT22;45321;53.200;5.814;2022-12-05T08:53:17;7.30;87.60
59505;DHT22;45321;53.200;5.814;2022-12-05T08:55:43;7.30;87.50
59505;DHT22;45321;53.200;5.814;2022-12-05T08:58:10;7.30;87.50
59505;DHT22;45321;53.200;5.814;2022-12-05T09:00:37;7.30;87.40
59505;DHT22;45321;53.200;5.814;2022-12-05T09:03:03;7.30;87.30
59505;DHT22;45321;53.200;5.814;2022-12-05T09:05:29;7.30;87.30
59505;DHT22;45321;53.200;5.814;2022-12-05T09:07:55;7.30;87.30
59505;DHT22;45321;53.200;5.814;2022-12-05T09:10:21;7.20;87.30
59505;DHT22;45321;53.200;5.814;2022-12-05T09:12:47;7.20;87.30
59505;DHT22;45321;53.200;5.814;2022-12-05T09:15:15;7.30;87.40
59505;DHT22;45321;53.200;5.814;2022-12-05T09:17:40;7.30;87.30
59505;DHT22;45321;53.200;5.814;2022-12-05T09:20:06;7.30;87.30
59505;DHT22;45321;53.200;5.814;2022-12-05T09:22:33;7.30;87.30
59505;DHT22;45321;53.200;5.814;2022-12-05T09:24:59;7.30;87.30
59505;DHT22;45321;53.200;5.814;2022-12-05T09:27:27;7.30;87.30
59505;DHT22;45321;53.200;5.814;2022-12-05T09:29:53;7.30;87.20
59505;DHT22;45321;53.200;5.814;2022-12-05T09:32:19;7.30;87.20
59505;DHT22;45321;53.200;5.814;2022-12-05T09:34:44;7.30;87.10
59505;DHT22;45321;53.200;5.814;2022-12-05T09:37:10;7.30;86.90
59505;DHT22;45321;53.200;5.814;2022-12-05T09:39:37;7.40;86.90
59505;DHT22;45321;53.200;5.814;2022-12-05T09:45:22;7.40;86.90
59505;DHT22;45321;53.200;5.814;2022-12-05T09:50:23;7.40;86.50
59505;DHT22;45321;53.200;5.814;2022-12-05T09:55:50;7.40;86.60
59505;DHT22;45321;53.200;5.814;2022-12-05T10:04:04;7.40;86.40
59505;DHT22;45321;53.200;5.814;2022-12-05T10:06:40;7.50;86.40
59505;DHT22;45321;53.200;5.814;2022-12-05T10:12:12;7.50;86.30
59505;DHT22;45321;53.200;5.814;2022-12-05T10:17:43;7.50;86.20
59505;DHT22;45321;53.200;5.814;2022-12-05T10:20:16;7.50;86.10
59505;DHT22;45321;53.200;5.814;2022-12-05T10:22:49;7.50;86.00
59505;DHT22;45321;53.200;5.814;2022-12-05T10:25:19;7.60;86.00
59505;DHT22;45321;53.200;5.814;2022-12-05T10:27:55;7.50;85.90
59505;DHT22;45321;53.200;5.814;2022-12-05T10:30:23;7.50;86.00
59505;DHT22;45321;53.200;5.814;2022-12-05T10:32:57;7.50;86.10
59505;DHT22;45321;53.200;5.814;2022-12-05T10:35:34;7.60;86.10
59505;DHT22;45321;53.200;5.814;2022-12-05T10:40:39;7.60;86.20
59505;DHT22;45321;53.200;5.814;2022-12-05T10:43:06;7.60;86.20
59505;DHT22;45321;53.200;5.814;2022-12-05T10:45:36;7.60;86.20
59505;DHT22;45321;53.200;5.814;2022-12-05T10:48:04;7.60;86.20
59505;DHT22;45321;53.200;5.814;2022-12-05T10:50:36;7.70;86.20
59505;DHT22;45321;53.200;5.814;2022-12-05T10:53:04;7.70;86.20
59505;DHT22;45321;53.200;5.814;2022-12-05T10:55:40;7.70;86.30
59505;DHT22;45321;53.200;5.814;2022-12-05T10:58:18;7.70;86.10
59505;DHT22;45321;53.200;5.814;2022-12-05T11:00:50;7.70;86.20
59505;DHT22;45321;53.200;5.814;2022-12-05T11:05:53;7.70;85.90
59505;DHT22;45321;53.200;5.814;2022-12-05T11:08:27;7.70;85.80
59505;DHT22;45321;53.200;5.814;2022-12-05T11:11:05;7.70;86.00
59505;DHT22;45321;53.200;5.814;2022-12-05T11:13:32;7.70;86.00
59505;DHT22;45321;53.200;5.814;2022-12-05T11:15:58;7.70;85.90
59505;DHT22;45321;53.200;5.814;2022-12-05T11:18:31;7.80;85.80
59505;DHT22;45321;53.200;5.814;2022-12-05T11:21:09;7.70;85.70
59505;DHT22;45321;53.200;5.814;2022-12-05T11:23:36;7.70;85.90
59505;DHT22;45321;53.200;5.814;2022-12-05T11:26:02;7.70;85.90
59505;DHT22;45321;53.200;5.814;2022-12-05T11:28:34;7.70;86.00
59505;DHT22;45321;53.200;5.814;2022-12-05T11:33:34;7.70;86.50
59505;DHT22;45321;53.200;5.814;2022-12-05T11:36:23;7.70;86.50
59505;DHT22;45321;53.200;5.814;2022-12-05T11:38:48;7.70;86.60
59505;DHT22;45321;53.200;5.814;2022-12-05T12:00:23;7.60;87.80
59505;DHT22;45321;53.200;5.814;2022-12-05T12:06:11;7.60;88.10
59505;DHT22;45321;53.200;5.814;2022-12-05T12:12:19;7.60;88.20
59505;DHT22;45321;53.200;5.814;2022-12-05T12:17:29;7.60;88.20
59505;DHT22;45321;53.200;5.814;2022-12-05T12:33:40;7.50;88.50
59505;DHT22;45321;53.200;5.814;2022-12-05T12:36:26;7.50;88.60
59505;DHT22;45321;53.200;5.814;2022-12-05T12:52:27;7.50;88.70
59505;DHT22;45321;53.200;5.814;2022-12-05T12:57:28;7.50;88.80
59505;DHT22;45321;53.200;5.814;2022-12-05T13:05:05;7.50;88.90
59505;DHT22;45321;53.200;5.814;2022-12-05T13:07:40;7.50;88.90
59505;DHT22;45321;53.200;5.814;2022-12-05T13:10:31;7.50;89.00
59505;DHT22;45321;53.200;5.814;2022-12-05T13:13:05;7.50;88.80
59505;DHT22;45321;53.200;5.814;2022-12-05T13:15:37;7.50;89.00
59505;DHT22;45321;53.200;5.814;2022-12-05T13:18:06;7.50;89.10
59505;DHT22;45321;53.200;5.814;2022-12-05T13:20:41;7.50;89.10
59505;DHT22;45321;53.200;5.814;2022-12-05T13:23:13;7.50;89.10
59505;DHT22;45321;53.200;5.814;2022-12-05T13:25:40;7.50;89.10
59505;DHT22;45321;53.200;5.814;2022-12-05T13:28:29;7.50;89.10
59505;DHT22;45321;53.200;5.814;2022-12-05T13:30:57;7.50;89.10
59505;DHT22;45321;53.200;5.814;2022-12-05T13:33:51;7.40;89.30
59505;DHT22;45321;53.200;5.814;2022-12-05T13:36:19;7.40;89.30
59505;DHT22;45321;53.200;5.814;2022-12-05T13:39:06;7.40;89.40
59505;DHT22;45321;53.200;5.814;2022-12-05T13:42:01;7.50;89.40
59505;DHT22;45321;53.200;5.814;2022-12-05T13:44:51;7.40;89.40
59505;DHT22;45321;53.200;5.814;2022-12-05T13:47:24;7.40;89.40
59505;DHT22;45321;53.200;5.814;2022-12-05T13:52:38;7.40;89.40
59505;DHT22;45321;53.200;5.814;2022-12-05T13:57:44;7.50;89.30
59505;DHT22;45321;53.200;5.814;2022-12-05T14:10:13;7.40;89.40
59505;DHT22;45321;53.200;5.814;2022-12-05T14:15:43;7.40;89.30
59505;DHT22;45321;53.200;5.814;2022-12-05T14:29:35;7.50;89.30
59505;DHT22;45321;53.200;5.814;2022-12-05T14:32:21;7.40;89.40
59505;DHT22;45321;53.200;5.814;2022-12-05T14:40:29;7.40;89.40
59505;DHT22;45321;53.200;5.814;2022-12-05T14:45:31;7.50;89.50
59505;DHT22;45321;53.200;5.814;2022-12-05T14:48:00;7.50;89.30
59505;DHT22;45321;53.200;5.814;2022-12-05T14:50:34;7.50;89.30
59505;DHT22;45321;53.200;5.814;2022-12-05T14:56:04;7.40;89.40
59505;DHT22;45321;53.200;5.814;2022-12-05T15:00:59;7.50;89.40
59505;DHT22;45321;53.200;5.814;2022-12-05T15:03:32;7.40;89.30
59505;DHT22;45321;53.200;5.814;2022-12-05T15:06:02;7.50;89.30
59505;DHT22;45321;53.200;5.814;2022-12-05T15:08:31;7.50;89.40
59505;DHT22;45321;53.200;5.814;2022-12-05T15:10:58;7.40;89.20
59505;DHT22;45321;53.200;5.814;2022-12-05T15:13:25;7.40;89.30
59505;DHT22;45321;53.200;5.814;2022-12-05T15:16:14;7.50;89.30
59505;DHT22;45321;53.200;5.814;2022-12-05T15:18:46;7.40;89.30
59505;DHT22;45321;53.200;5.814;2022-12-05T15:21:25;7.50;89.30
59505;DHT22;45321;53.200;5.814;2022-12-05T15:23:57;7.50;89.30
59505;DHT22;45321;53.200;5.814;2022-12-05T15:26:28;7.50;89.00
59505;DHT22;45321;53.200;5.814;2022-12-05T15:34:40;7.40;89.30
59505;DHT22;45321;53.200;5.814;2022-12-05T15:42:51;7.50;89.30
59505;DHT22;45321;53.200;5.814;2022-12-05T15:45:19;7.40;89.20
59505;DHT22;45321;53.200;5.814;2022-12-05T15:47:53;7.40;89.30
59505;DHT22;45321;53.200;5.814;2022-12-05T15:55:55;7.40;89.50
59505;DHT22;45321;53.200;5.814;2022-12-05T15:58:31;7.40;89.50
59505;DHT22;45321;53.200;5.814;2022-12-05T16:03:57;7.40;89.70
59505;DHT22;45321;53.200;5.814;2022-12-05T16:06:43;7.40;89.70
59505;DHT22;45321;53.200;5.814;2022-12-05T16:09:19;7.40;89.60
59505;DHT22;45321;53.200;5.814;2022-12-05T16:12:03;7.50;89.60
59505;DHT22;45321;53.200;5.814;2022-12-05T16:14:36;7.40;89.60
59505;DHT22;45321;53.200;5.814;2022-12-05T16:17:04;7.40;89.60
59505;DHT22;45321;53.200;5.814;2022-12-05T16:19:31;7.40;89.60
59505;DHT22;45321;53.200;5.814;2022-12-05T16:24:42;7.40;89.70
59505;DHT22;45321;53.200;5.814;2022-12-05T16:27:24;7.50;89.50
59505;DHT22;45321;53.200;5.814;2022-12-05T16:30:19;7.40;89.40
59505;DHT22;45321;53.200;5.814;2022-12-05T16:32:46;7.40;89.40
59505;DHT22;45321;53.200;5.814;2022-12-05T16:35:32;7.50;89.40
59505;DHT22;45321;53.200;5.814;2022-12-05T16:38:19;7.50;89.30
59505;DHT22;45321;53.200;5.814;2022-12-05T16:48:42;7.50;89.40
59505;DHT22;45321;53.200;5.814;2022-12-05T16:51:20;7.40;89.40
59505;DHT22;45321;53.200;5.814;2022-12-05T16:56:19;7.40;89.40
59505;DHT22;45321;53.200;5.814;2022-12-05T16:58:48;7.50;89.50
59505;DHT22;45321;53.200;5.814;2022-12-05T17:01:19;7.50;89.40
59505;DHT22;45321;53.200;5.814;2022-12-05T17:03:45;7.50;89.30
59505;DHT22;45321;53.200;5.814;2022-12-05T17:06:12;7.50;89.40
59505;DHT22;45321;53.200;5.814;2022-12-05T17:08:40;7.50;89.50
59505;DHT22;45321;53.200;5.814;2022-12-05T17:11:11;7.50;89.30
59505;DHT22;45321;53.200;5.814;2022-12-05T17:13:39;7.50;89.30
59505;DHT22;45321;53.200;5.814;2022-12-05T17:16:05;7.50;89.40
59505;DHT22;45321;53.200;5.814;2022-12-05T17:18:31;7.50;89.30
59505;DHT22;45321;53.200;5.814;2022-12-05T17:20:59;7.50;89.20
59505;DHT22;45321;53.200;5.814;2022-12-05T17:23:25;7.50;89.30
59505;DHT22;45321;53.200;5.814;2022-12-05T17:25:53;7.40;89.20
59505;DHT22;45321;53.200;5.814;2022-12-05T17:28:19;7.50;89.30
59505;DHT22;45321;53.200;5.814;2022-12-05T17:30:45;7.40;89.30
59505;DHT22;45321;53.200;5.814;2022-12-05T17:33:13;7.50;89.20
59505;DHT22;45321;53.200;5.814;2022-12-05T17:35:39;7.50;89.30
59505;DHT22;45321;53.200;5.814;2022-12-05T17:38:06;7.50;89.20
59505;DHT22;45321;53.200;5.814;2022-12-05T17:40:32;7.50;89.30
59505;DHT22;45321;53.200;5.814;2022-12-05T17:42:58;7.50;89.20
59505;DHT22;45321;53.200;5.814;2022-12-05T17:45:25;7.40;89.20
59505;DHT22;45321;53.200;5.814;2022-12-05T17:47:53;7.40;89.10
59505;DHT22;45321;53.200;5.814;2022-12-05T17:50:21;7.40;89.10
59505;DHT22;45321;53.200;5.814;2022-12-05T17:52:48;7.40;89.10
59505;DHT22;45321;53.200;5.814;2022-12-05T17:55:21;7.40;89.20
59505;DHT22;45321;53.200;5.814;2022-12-05T17:57:48;7.40;89.10
59505;DHT22;45321;53.200;5.814;2022-12-05T18:00:16;7.40;89.10
59505;DHT22;45321;53.200;5.814;2022-12-05T18:02:43;7.40;89.10
59505;DHT22;45321;53.200;5.814;2022-12-05T18:05:10;7.40;89.10
59505;DHT22;45321;53.200;5.814;2022-12-05T18:07:37;7.40;89.00
59505;DHT22;45321;53.200;5.814;2022-12-05T18:10:04;7.40;89.10
59505;DHT22;45321;53.200;5.814;2022-12-05T18:12:30;7.40;89.20
59505;DHT22;45321;53.200;5.814;2022-12-05T18:14:56;7.40;89.20
59505;DHT22;45321;53.200;5.814;2022-12-05T18:17:21;7.40;89.20
59505;DHT22;45321;53.200;5.814;2022-12-05T18:19:49;7.40;89.00
59505;DHT22;45321;53.200;5.814;2022-12-05T18:22:15;7.40;88.90
59505;DHT22;45321;53.200;5.814;2022-12-05T18:24:40;7.40;88.90
59505;DHT22;45321;53.200;5.814;2022-12-05T18:27:06;7.40;88.90
59505;DHT22;45321;53.200;5.814;2022-12-05T18:29:32;7.40;88.90
59505;DHT22;45321;53.200;5.814;2022-12-05T18:31:58;7.40;88.90
59505;DHT22;45321;53.200;5.814;2022-12-05T18:34:23;7.40;88.90
59505;DHT22;45321;53.200;5.814;2022-12-05T18:36:49;7.40;88.90
59505;DHT22;45321;53.200;5.814;2022-12-05T18:39:15;7.40;88.80
59505;DHT22;45321;53.200;5.814;2022-12-05T18:41:41;7.40;88.70
59505;DHT22;45321;53.200;5.814;2022-12-05T18:44:07;7.40;88.70
59505;DHT22;45321;53.200;5.814;2022-12-05T18:46:35;7.40;88.70
59505;DHT22;45321;53.200;5.814;2022-12-05T18:49:02;7.40;88.70
59505;DHT22;45321;53.200;5.814;2022-12-05T18:51:27;7.50;88.70
59505;DHT22;45321;53.200;5.814;2022-12-05T18:53:53;7.40;88.60
59505;DHT22;45321;53.200;5.814;2022-12-05T18:56:31;7.50;88.60
59505;DHT22;45321;53.200;5.814;2022-12-05T18:59:04;7.40;88.50
59505;DHT22;45321;53.200;5.814;2022-12-05T19:01:32;7.40;88.40
59505;DHT22;45321;53.200;5.814;2022-12-05T19:04:00;7.40;88.50
59505;DHT22;45321;53.200;5.814;2022-12-05T19:06:28;7.50;88.50
59505;DHT22;45321;53.200;5.814;2022-12-05T19:08:56;7.50;88.60
59505;DHT22;45321;53.200;5.814;2022-12-05T19:11:23;7.50;88.50
59505;DHT22;45321;53.200;5.814;2022-12-05T19:14:00;7.50;88.50
59505;DHT22;45321;53.200;5.814;2022-12-05T19:16:27;7.50;88.50
59505;DHT22;45321;53.200;5.814;2022-12-05T19:18:58;7.50;88.50
59505;DHT22;45321;53.200;5.814;2022-12-05T19:21:26;7.50;88.50
59505;DHT22;45321;53.200;5.814;2022-12-05T19:23:52;7.50;88.50
59505;DHT22;45321;53.200;5.814;2022-12-05T19:26:19;7.50;88.40
59505;DHT22;45321;53.200;5.814;2022-12-05T19:28:45;7.50;88.30
59505;DHT22;45321;53.200;5.814;2022-12-05T19:31:14;7.50;88.30